• Join FlightAware (Why Join?)
  • Login
  • US Flag 
06:51AM EDT


 

Airport Tracker/Info


-or-


 

Live Flight TrackerFlight Track Log ✈ EJA727 ✈ 03-Jul-2013 ✈ MYAM / MHH - KMIA

Flight Track Log - Related Links

Times and Time Zones

All times are in EDT time to prevent confusion due to time zone crossing. See the EJA727 flight status page for this flight to view local times or setup timezone preferences in your user account.

Time Position Orientation Groundspeed Altitude Reporting Facility
EDT Latitude Longitude Course Direction KTS MPH feet Rate Location/Type
12:59PM 26.4686 -77.1883 274° West 399 459 11,200  Level Miami Center
01:00PM 26.4744 -77.2811 274° West 357 411 14,300 2,820 Climbing Miami Center
01:01PM 26.4825 -77.4042 274° West 374 430 16,900 1,800 Climbing Miami Center
01:02PM 26.4883 -77.5250 273° West 400 460 18,000 540 Climbing Miami Center
01:03PM 26.4958 -77.6503 274° West 414 476 18,000  Level Miami Center
01:04PM 26.5036 -77.7736 274° West 414 476 18,000  Level Miami Center
01:05PM 26.5111 -77.8919 274° West 407 468 18,000  Level Miami Center
01:06PM 26.5186 -78.0197 274° West 401 461 18,000  Level Miami Center
01:07PM 26.5258 -78.1500 274° West 401 461 18,000  Level Miami Center
01:08PM 26.5308 -78.2753 273° West 409 471 18,000  Level Miami Center
01:09PM 26.5381 -78.4033 274° West 409 471 18,000  Level Miami Center
01:10PM 26.5428 -78.5311 272° West 410 472 18,000  Level Miami Center
01:11PM 26.5539 -78.6497 276° West 416 479 18,000  Level Miami Center
01:12PM 26.5547 -78.7681 270° West 411 473 18,000  Level Miami Center
01:13PM 26.5342 -78.8908 259° West 406 467 18,000  Level Miami Center
01:14PM 26.5011 -79.0086 253° West 406 467 18,000  Level Miami Center
01:15PM 26.4700 -79.1311 254° West 411 473 18,000  Level Miami Center
01:16PM 26.4389 -79.2536 254° West 411 473 18,000  Level Miami Center
01:17PM 26.4011 -79.3872 253° West 416 479 18,000  Level Miami Center
01:18PM 26.3781 -79.5097 258° West 416 479 18,000  Level Miami Center
01:19PM 26.3967 -79.6283 280° West 395 455 18,000 -240 Level Miami Center
01:20PM 26.4369 -79.7036 301° West 385 443 17,600 -1,140 Descending Miami Center
01:21PM 26.4094 -79.8306 256° West 375 432 16,000 -780 Descending Miami Center
01:22PM 26.3408 -79.9192 229° Southwest 366 421 16,000 -360 Level Miami Center
01:23PM 26.2744 -79.9917 224° Southwest 363 418 15,400 -1,020 Descending Miami Center
01:24PM 26.1881 -80.0333 203° Southwest 343 395 14,100 -1,440 Descending Miami Center
01:25PM 26.1017 -80.0564 193° South 336 387 12,700 -1,740 Descending Miami Center
01:26PM 26.0133 -80.0842 196° South 320 368 10,800 -1,800 Descending Miami Center
01:27PM 25.9558 -80.1381 220° Southwest 294 338 9,100 -1,380 Descending Miami Center
01:28PM 25.9517 -80.2328 267° West 299 344 8,000 -1,320 Descending Miami Center
01:29PM 25.9475 -80.3133 267° West 279 321 6,600 -1,920 Descending Miami Center
01:30PM 25.9372 -80.4031 263° West 274 315 4,100 -1,740 Descending Miami Center
01:31PM 25.8858 -80.4525 221° Southwest 216 249 3,000 -840 Descending Miami Center
01:32PM 25.8378 -80.4486 176° South 157 181 2,500 -780 Descending Miami Center
01:33PM 25.8200 -80.4089 116° Southeast 143 165 1,500 -600 Descending Miami Center
01:34PM 25.8064 -80.3717 112° Southeast 129 148 1,300 -480 Descending Miami Center
01:35PM 25.7989 -80.3344 103° East 124 143 600 -720 Descending Miami Center
01:37PM 25.7954 -80.2901 103° East  Level Estimated
01:44PM 25.7954 -80.2901 103° East  Level Estimated